createdAt,value
2022-07-28T00:00:48.685Z,1.60
2022-07-28T00:05:55.237Z,1.75
2022-07-28T00:09:08.064Z,1.55
2022-07-28T00:11:50.367Z,1.40
2022-07-28T00:14:29.050Z,1.50
2022-07-28T00:16:56.648Z,1.52
2022-07-28T00:19:24.326Z,1.70
2022-07-28T00:21:58.021Z,1.60
2022-07-28T00:24:25.763Z,1.60
2022-07-28T00:26:53.457Z,1.67
2022-07-28T00:29:49.223Z,1.60
2022-07-28T00:32:14.792Z,1.48
2022-07-28T00:34:50.025Z,1.60
2022-07-28T00:37:21.174Z,1.38
2022-07-28T00:39:48.703Z,1.75
2022-07-28T00:42:27.048Z,1.70
2022-07-28T00:44:54.596Z,2.22
2022-07-28T00:47:22.109Z,1.52
2022-07-28T00:49:57.055Z,1.80
2022-07-28T00:52:25.115Z,1.50
2022-07-28T00:54:52.958Z,1.75
2022-07-28T00:57:28.055Z,1.58
2022-07-28T00:59:55.665Z,1.50
2022-07-28T01:02:36.128Z,1.60
2022-07-28T01:05:04.170Z,1.60
2022-07-28T01:07:57.056Z,1.63
2022-07-28T01:10:53.191Z,1.90
2022-07-28T01:14:02.030Z,1.50
2022-07-28T01:16:29.878Z,1.40
2022-07-28T01:19:17.053Z,1.70
2022-07-28T01:21:47.028Z,1.40
2022-07-28T01:24:34.064Z,1.63
2022-07-28T01:27:14.748Z,1.67
2022-07-28T01:30:32.088Z,1.38
2022-07-28T01:33:09.372Z,1.50
2022-07-28T01:36:05.042Z,1.63
2022-07-28T01:38:35.096Z,1.58
2022-07-28T01:41:16.108Z,1.80
2022-07-28T01:43:56.565Z,1.70
2022-07-28T01:46:33.077Z,1.60
2022-07-28T01:49:02.537Z,1.73
2022-07-28T01:51:40.109Z,1.63
2022-07-28T01:54:09.001Z,1.75
2022-07-28T01:56:38.470Z,1.67
2022-07-28T01:59:16.045Z,2.00
2022-07-28T02:01:45.817Z,1.67
2022-07-28T02:04:15.742Z,1.73
2022-07-28T02:06:52.089Z,1.60
2022-07-28T02:09:41.033Z,1.60
2022-07-28T02:12:16.085Z,1.70
2022-07-28T02:14:47.528Z,1.60
2022-07-28T02:17:26.087Z,1.35
2022-07-28T02:19:54.565Z,1.92
2022-07-28T02:22:22.514Z,1.70
2022-07-28T02:24:58.086Z,1.40
2022-07-28T02:27:35.842Z,1.50
2022-07-28T02:30:22.092Z,1.60
2022-07-28T02:32:53.985Z,1.30
2022-07-28T02:35:42.138Z,1.98
2022-07-28T02:38:19.261Z,1.70
2022-07-28T02:40:58.071Z,1.50
2022-07-28T02:43:49.832Z,1.60
2022-07-28T02:46:29.183Z,1.70
2022-07-28T02:49:04.915Z,1.90
2022-07-28T02:51:40.376Z,1.95
2022-07-28T02:54:08.806Z,1.50
2022-07-28T02:56:36.545Z,1.60
2022-07-28T02:59:11.092Z,1.58
2022-07-28T03:01:38.870Z,1.60
2022-07-28T03:04:07.083Z,1.75
2022-07-28T03:06:41.174Z,1.60
2022-07-28T03:09:30.106Z,1.58
2022-07-28T03:12:04.131Z,1.50
2022-07-28T03:14:31.622Z,1.52
2022-07-28T03:16:59.141Z,1.60
2022-07-28T03:19:33.077Z,1.60
2022-07-28T03:22:00.950Z,1.75
2022-07-28T03:24:42.095Z,1.70
2022-07-28T03:27:19.532Z,1.73
2022-07-28T03:30:03.641Z,1.80
2022-07-28T03:32:35.867Z,1.80
2022-07-28T03:35:13.083Z,1.40
2022-07-28T03:38:05.595Z,1.83
2022-07-28T03:40:41.088Z,1.67
2022-07-28T03:43:16.635Z,1.60
2022-07-28T03:45:52.135Z,1.55
2022-07-28T03:48:23.503Z,1.73
2022-07-28T03:50:51.270Z,1.88
2022-07-28T03:53:32.099Z,2.20
2022-07-28T03:55:59.636Z,1.50
2022-07-28T03:58:29.185Z,1.70
2022-07-28T04:01:04.126Z,1.60
2022-07-28T04:03:42.530Z,1.70
2022-07-28T04:06:18.106Z,1.88
2022-07-28T04:08:46.589Z,1.75
2022-07-28T04:11:27.399Z,2.08
2022-07-28T04:13:55.767Z,1.75
2022-07-28T04:16:24.242Z,1.52
2022-07-28T04:18:58.365Z,1.90
2022-07-28T04:21:26.170Z,1.73
2022-07-28T04:23:57.236Z,1.80
2022-07-28T04:26:35.132Z,2.78
2022-07-28T04:29:03.303Z,2.35
2022-07-28T04:31:31.473Z,1.98
2022-07-28T04:34:06.142Z,1.80
2022-07-28T04:36:34.495Z,1.90
2022-07-28T04:39:01.980Z,1.90
2022-07-28T04:41:36.099Z,2.05
2022-07-28T04:44:03.872Z,2.10
2022-07-28T04:46:31.386Z,1.90
2022-07-28T04:49:05.178Z,1.88
2022-07-28T04:51:32.617Z,2.30
2022-07-28T04:53:59.996Z,2.03
2022-07-28T04:56:34.130Z,2.05
2022-07-28T04:59:01.744Z,2.38
2022-07-28T05:01:31.400Z,2.30
2022-07-28T05:04:05.155Z,2.03
2022-07-28T05:06:34.971Z,1.90
2022-07-28T05:09:17.136Z,1.70
2022-07-28T05:11:51.351Z,2.13
2022-07-28T05:14:26.105Z,1.92
2022-07-28T05:16:53.745Z,2.00
2022-07-28T05:19:21.440Z,2.05
2022-07-28T05:21:56.234Z,2.20
2022-07-28T05:24:23.964Z,2.30
2022-07-28T05:26:51.701Z,1.67
2022-07-28T05:29:26.164Z,1.90
2022-07-28T05:32:16.770Z,2.30
2022-07-28T05:34:53.210Z,2.35
2022-07-28T05:37:20.927Z,2.55
2022-07-28T05:39:48.497Z,2.10
2022-07-28T05:42:22.137Z,2.42
2022-07-28T05:44:49.963Z,2.13
2022-07-28T05:47:17.933Z,2.28
2022-07-28T05:49:52.147Z,2.22
2022-07-28T05:52:19.610Z,2.13
2022-07-28T05:54:47.142Z,2.10
2022-07-28T05:57:21.151Z,2.60
2022-07-28T05:59:48.781Z,2.22
2022-07-28T06:02:16.539Z,2.20
2022-07-28T06:04:51.178Z,2.08
2022-07-28T06:07:18.712Z,2.58
2022-07-28T06:10:00.135Z,2.30
2022-07-28T06:12:43.365Z,2.42
2022-07-28T06:15:26.197Z,2.80
2022-07-28T06:17:55.883Z,2.78
2022-07-28T06:20:25.091Z,3.47
2022-07-28T06:23:02.161Z,3.00
2022-07-28T06:25:31.433Z,2.47
2022-07-28T06:28:10.223Z,3.28
2022-07-28T06:30:40.860Z,3.47
2022-07-28T06:33:09.400Z,3.28
2022-07-28T06:35:50.917Z,3.13
2022-07-28T06:38:20.962Z,3.60
2022-07-28T06:40:55.176Z,3.65
2022-07-28T06:43:22.743Z,3.70
2022-07-28T06:45:51.807Z,4.15
2022-07-28T06:48:29.255Z,3.33
2022-07-28T06:50:59.716Z,3.60
2022-07-28T06:53:34.587Z,3.33
2022-07-28T06:56:04.599Z,3.58
2022-07-28T06:58:33.041Z,4.07
2022-07-28T07:01:09.224Z,3.40
2022-07-28T07:03:36.986Z,4.03
2022-07-28T07:06:05.138Z,3.67
2022-07-28T07:08:39.159Z,3.80
2022-07-28T07:11:13.238Z,3.85
2022-07-28T07:13:54.228Z,4.00
2022-07-28T07:16:21.857Z,3.28
2022-07-28T07:18:52.964Z,3.92
2022-07-28T07:21:27.185Z,3.92
2022-07-28T07:23:54.827Z,3.67
2022-07-28T07:26:22.607Z,4.03
2022-07-28T07:28:57.192Z,3.53
2022-07-28T07:31:24.851Z,4.15
2022-07-28T07:33:52.573Z,4.28
2022-07-28T07:36:27.192Z,4.00
2022-07-28T07:38:55.020Z,4.15
2022-07-28T07:41:23.131Z,4.60
2022-07-28T07:43:57.218Z,3.55
2022-07-28T07:46:24.964Z,4.13
2022-07-28T07:48:52.628Z,3.75
2022-07-28T07:51:27.210Z,4.10
2022-07-28T07:53:54.824Z,4.13
2022-07-28T07:56:23.059Z,3.60
2022-07-28T07:58:58.192Z,4.68
2022-07-28T08:01:26.299Z,4.30
2022-07-28T08:03:54.024Z,4.20
2022-07-28T08:06:28.250Z,4.43
2022-07-28T08:08:56.992Z,4.45
2022-07-28T08:11:38.230Z,4.07
2022-07-28T08:14:13.037Z,4.53
2022-07-28T08:16:47.166Z,4.30
2022-07-28T08:19:14.736Z,4.13
2022-07-28T08:21:42.399Z,4.47
2022-07-28T08:24:17.788Z,4.28
2022-07-28T08:27:00.166Z,3.90
2022-07-28T08:29:34.263Z,3.90
2022-07-28T08:32:04.171Z,4.40
2022-07-28T08:34:34.003Z,3.92
2022-07-28T08:37:12.239Z,3.70
2022-07-28T08:39:40.026Z,3.95
2022-07-28T08:42:30.179Z,3.60
2022-07-28T08:45:06.889Z,4.00
2022-07-28T08:48:07.211Z,3.60
2022-07-28T08:50:32.712Z,4.20
2022-07-28T08:53:08.490Z,3.55
2022-07-28T08:55:36.992Z,3.70
2022-07-28T08:58:05.126Z,3.95
2022-07-28T09:00:40.262Z,4.38
2022-07-28T09:03:08.618Z,4.10
2022-07-28T09:05:47.221Z,3.95
2022-07-28T09:08:17.164Z,3.72
2022-07-28T09:10:58.290Z,3.97
2022-07-28T09:13:27.247Z,4.47
2022-07-28T09:15:55.100Z,4.15
2022-07-28T09:18:30.228Z,3.80
2022-07-28T09:20:57.840Z,4.57
2022-07-28T09:23:33.577Z,4.30
2022-07-28T09:26:20.265Z,4.03
2022-07-28T09:28:53.643Z,3.88
2022-07-28T09:31:29.310Z,4.65
2022-07-28T09:34:03.443Z,4.38
2022-07-28T09:36:45.259Z,3.58
2022-07-28T09:39:27.524Z,3.83
2022-07-28T09:42:02.261Z,5.15
2022-07-28T09:44:29.954Z,4.40
2022-07-28T09:46:57.990Z,4.35
2022-07-28T09:49:49.280Z,4.32
2022-07-28T09:52:31.695Z,4.80
2022-07-28T09:55:10.259Z,4.65
2022-07-28T09:57:40.273Z,4.85
2022-07-28T10:00:31.220Z,4.28
2022-07-28T10:02:59.437Z,4.78
2022-07-28T10:05:50.785Z,4.95
2022-07-28T10:08:38.735Z,4.10
2022-07-28T10:11:31.240Z,4.88
2022-07-28T10:14:08.256Z,4.50
2022-07-28T10:16:48.228Z,4.22
2022-07-28T10:19:16.417Z,4.55
2022-07-28T10:21:45.985Z,4.20
2022-07-28T10:24:29.242Z,5.13
2022-07-28T10:26:59.796Z,4.47
2022-07-28T10:29:38.239Z,4.55
2022-07-28T10:32:07.359Z,4.45
2022-07-28T10:34:52.297Z,4.10
2022-07-28T10:37:24.391Z,4.40
2022-07-28T10:40:13.232Z,4.50
2022-07-28T10:42:41.491Z,4.45
2022-07-28T10:45:13.218Z,4.32
2022-07-28T10:47:48.303Z,4.30
2022-07-28T10:50:16.916Z,5.07
2022-07-28T10:52:48.315Z,4.68
2022-07-28T10:55:57.302Z,4.72
2022-07-28T10:58:36.819Z,4.40
2022-07-28T11:01:26.784Z,4.07
2022-07-28T11:03:58.821Z,3.90
2022-07-28T11:06:41.246Z,4.50
2022-07-28T11:09:17.998Z,4.47
2022-07-28T11:12:06.257Z,4.40
2022-07-28T11:14:38.398Z,4.55
2022-07-28T11:17:13.424Z,4.70
2022-07-28T11:22:41.263Z,4.32
2022-07-28T11:25:18.474Z,3.92
2022-07-28T11:27:58.243Z,4.05
2022-07-28T11:30:28.970Z,4.65
2022-07-28T11:32:57.122Z,4.40
2022-07-28T11:35:46.325Z,3.50
2022-07-28T11:38:14.740Z,3.88
2022-07-28T11:40:53.270Z,4.18
2022-07-28T11:43:37.701Z,4.47
2022-07-28T11:46:13.309Z,4.00
2022-07-28T11:48:47.482Z,4.00
2022-07-28T11:51:22.285Z,3.65
2022-07-28T11:53:50.961Z,4.40
2022-07-28T11:56:38.417Z,4.28
2022-07-28T11:59:07.671Z,4.15
2022-07-28T12:01:36.949Z,3.63
2022-07-28T12:04:23.332Z,4.30
2022-07-28T12:06:52.325Z,4.13
2022-07-28T12:09:25.645Z,3.85
2022-07-28T12:12:02.368Z,3.75
2022-07-28T12:14:30.377Z,3.90
2022-07-28T12:16:58.139Z,3.83
2022-07-28T12:19:37.331Z,3.97
2022-07-28T12:22:15.670Z,3.63
2022-07-28T12:24:50.338Z,4.00
2022-07-28T12:27:31.681Z,3.60
2022-07-28T12:30:09.266Z,3.50
2022-07-28T12:32:36.905Z,4.10
2022-07-28T12:35:05.095Z,3.92
2022-07-28T12:37:39.310Z,3.75
2022-07-28T12:40:09.028Z,3.65
2022-07-28T12:42:36.615Z,3.67
2022-07-28T12:45:14.312Z,3.70
2022-07-28T12:47:42.459Z,3.90
2022-07-28T12:50:26.318Z,3.72
2022-07-28T12:53:08.517Z,3.92
2022-07-28T12:55:43.330Z,3.40
2022-07-28T12:58:26.890Z,3.30
2022-07-28T13:01:01.338Z,3.60
2022-07-28T13:03:30.093Z,3.45
2022-07-28T13:06:15.335Z,3.50
2022-07-28T13:08:47.816Z,3.33
2022-07-28T13:11:43.403Z,3.47
2022-07-28T13:14:41.096Z,4.00
2022-07-28T13:17:15.310Z,3.65
2022-07-28T13:19:43.681Z,3.45
2022-07-28T13:22:11.536Z,3.65
2022-07-28T13:24:46.308Z,3.80
2022-07-28T13:27:14.015Z,3.50
2022-07-28T13:29:41.570Z,3.72
2022-07-28T13:32:18.387Z,3.25
2022-07-28T13:34:46.550Z,3.28
2022-07-28T13:37:14.640Z,2.75
2022-07-28T13:39:53.990Z,3.80
2022-07-28T13:42:23.593Z,3.92
2022-07-28T13:44:58.314Z,3.38
2022-07-28T13:47:27.059Z,3.47
2022-07-28T13:50:11.245Z,3.22
2022-07-28T13:52:39.748Z,2.92
2022-07-28T13:55:09.255Z,3.45
2022-07-28T13:57:43.460Z,3.30
2022-07-28T14:00:12.054Z,3.40
2022-07-28T14:02:44.176Z,3.60
2022-07-28T14:05:19.334Z,3.25
2022-07-28T14:07:49.265Z,3.22
2022-07-28T14:10:18.235Z,3.40
2022-07-28T14:12:53.390Z,3.00
2022-07-28T14:15:22.043Z,3.33
2022-07-28T14:17:50.008Z,3.28
2022-07-28T14:20:24.389Z,3.30
2022-07-28T14:22:52.175Z,3.42
2022-07-28T14:25:20.675Z,3.17
2022-07-28T14:27:57.453Z,3.22
2022-07-28T14:30:27.043Z,3.50
2022-07-28T14:32:57.026Z,3.30
2022-07-28T14:35:31.390Z,3.10
2022-07-28T14:40:53.341Z,2.70
2022-07-28T14:43:21.500Z,3.03
2022-07-28T14:46:06.680Z,3.10
2022-07-28T14:48:43.418Z,2.90
2022-07-28T14:51:14.611Z,2.88
2022-07-28T14:53:52.190Z,3.10
2022-07-28T14:56:20.085Z,2.95
2022-07-28T14:58:47.622Z,3.03
2022-07-28T15:01:24.371Z,3.13
2022-07-28T15:03:51.965Z,2.80
2022-07-28T15:06:19.780Z,2.90
2022-07-28T15:08:54.382Z,3.13
2022-07-28T15:11:28.798Z,2.90
2022-07-28T15:14:09.348Z,3.03
2022-07-28T15:16:38.425Z,3.10
2022-07-28T15:19:08.167Z,3.03
2022-07-28T15:21:45.378Z,3.03
2022-07-28T15:24:13.608Z,2.92
2022-07-28T15:26:41.722Z,2.92
2022-07-28T15:29:16.343Z,2.78
2022-07-28T15:31:45.316Z,3.28
2022-07-28T15:34:14.618Z,3.08
2022-07-28T15:36:49.412Z,2.70
2022-07-28T15:39:17.659Z,3.50
2022-07-28T15:41:47.033Z,3.28
2022-07-28T15:44:26.027Z,3.25
2022-07-28T15:46:54.011Z,3.30
2022-07-28T15:49:35.355Z,3.00
2022-07-28T15:52:04.487Z,3.47
2022-07-28T15:54:32.199Z,3.28
2022-07-28T15:57:06.415Z,3.13
2022-07-28T15:59:50.006Z,3.42
2022-07-28T16:02:25.423Z,2.97
2022-07-28T16:04:54.328Z,3.47
2022-07-28T16:07:32.467Z,3.33
2022-07-28T16:10:00.293Z,3.25
2022-07-28T16:12:41.390Z,3.88
2022-07-28T16:15:09.738Z,3.60
2022-07-28T16:17:37.412Z,2.90
2022-07-28T16:20:12.455Z,3.50
2022-07-28T16:22:41.043Z,3.60
2022-07-28T16:25:15.898Z,3.40
2022-07-28T16:27:57.504Z,3.17
2022-07-28T16:30:25.348Z,3.40
2022-07-28T16:32:52.907Z,3.17
2022-07-28T16:35:27.395Z,3.15
2022-07-28T16:37:54.932Z,3.28
2022-07-28T16:40:22.446Z,3.50
2022-07-28T16:42:57.568Z,3.10
2022-07-28T16:45:25.185Z,3.22
2022-07-28T16:48:09.376Z,2.95
2022-07-28T16:50:38.559Z,3.38
2022-07-28T16:53:09.030Z,3.28
2022-07-28T16:55:43.428Z,3.08
2022-07-28T16:58:11.195Z,3.20
2022-07-28T17:00:38.628Z,3.20
2022-07-28T17:03:12.367Z,3.10
2022-07-28T17:05:39.924Z,3.47
2022-07-28T17:08:08.523Z,3.33
2022-07-28T17:10:42.391Z,3.50
2022-07-28T17:13:18.718Z,3.28
2022-07-28T17:15:52.484Z,3.20
2022-07-28T17:18:20.104Z,3.10
2022-07-28T17:20:47.724Z,3.20
2022-07-28T17:23:22.359Z,3.58
2022-07-28T17:26:21.128Z,3.20
2022-07-28T17:28:44.435Z,3.22
2022-07-28T17:31:15.469Z,3.10
2022-07-28T17:33:43.124Z,3.55
2022-07-28T17:36:17.470Z,3.40
2022-07-28T17:38:45.103Z,3.33
2022-07-28T17:41:13.072Z,3.40
2022-07-28T17:43:47.656Z,3.47
2022-07-28T17:46:15.346Z,3.30
2022-07-28T17:48:43.704Z,3.00
2022-07-28T17:51:18.499Z,2.85
2022-07-28T17:53:46.431Z,2.90
2022-07-28T17:56:13.983Z,3.20
2022-07-28T17:58:48.410Z,3.22
2022-07-28T18:01:16.201Z,3.40
2022-07-28T18:03:59.835Z,3.10
2022-07-28T18:06:37.411Z,3.30
2022-07-28T18:09:08.244Z,3.10
2022-07-28T18:11:58.816Z,2.90
2022-07-28T18:14:28.432Z,3.30
2022-07-28T18:17:03.561Z,3.33
2022-07-28T18:19:32.332Z,3.40
2022-07-28T18:22:00.125Z,3.10
2022-07-28T18:24:34.437Z,3.30
2022-07-28T18:27:02.176Z,2.97
2022-07-28T18:29:37.760Z,3.25
2022-07-28T18:32:14.495Z,3.10
2022-07-28T18:34:42.238Z,3.13
2022-07-28T18:37:09.873Z,3.15
2022-07-28T18:39:44.471Z,2.80
2022-07-28T18:42:12.113Z,3.05
2022-07-28T18:44:40.063Z,3.00
2022-07-28T18:47:16.643Z,2.95
2022-07-28T18:49:44.415Z,2.97
2022-07-28T18:52:11.994Z,2.80
2022-07-28T18:54:46.945Z,2.97
2022-07-28T18:57:15.201Z,2.90
2022-07-28T18:59:46.467Z,2.80
2022-07-28T19:02:22.883Z,3.05
2022-07-28T19:04:54.706Z,2.83
2022-07-28T19:07:22.258Z,2.90
2022-07-28T19:09:56.440Z,3.13
2022-07-28T19:12:44.460Z,3.20
2022-07-28T19:15:18.644Z,3.13
2022-07-28T19:17:46.341Z,3.00
2022-07-28T19:20:40.719Z,2.78
2022-07-28T19:23:08.386Z,2.78
2022-07-28T19:25:37.759Z,2.95
2022-07-28T19:28:12.719Z,2.83
2022-07-28T19:30:40.439Z,3.00
2022-07-28T19:33:09.530Z,2.65
2022-07-28T19:35:44.468Z,2.90
2022-07-28T19:38:12.582Z,2.58
2022-07-28T19:40:43.002Z,2.60
2022-07-28T19:43:17.482Z,2.92
2022-07-28T19:45:44.994Z,2.80
2022-07-28T19:48:12.539Z,3.30
2022-07-28T19:50:50.976Z,3.17
2022-07-28T19:53:20.081Z,3.05
2022-07-28T19:55:59.486Z,3.00
2022-07-28T19:58:27.043Z,2.70
2022-07-28T20:00:56.578Z,4.32
2022-07-28T20:04:03.863Z,3.17
2022-07-28T20:06:24.716Z,3.38
2022-07-28T20:09:00.499Z,3.30
2022-07-28T20:11:48.478Z,4.13
2022-07-28T20:14:22.463Z,4.35
2022-07-28T20:16:49.990Z,5.15
2022-07-28T20:19:17.833Z,5.10
2022-07-28T20:21:52.537Z,5.40
2022-07-28T20:24:20.297Z,5.25
2022-07-28T20:26:49.702Z,5.95
2022-07-28T20:29:25.553Z,5.45
2022-07-28T20:31:53.659Z,6.40
2022-07-28T20:34:21.718Z,6.50
2022-07-28T20:36:55.628Z,6.20
2022-07-28T20:39:43.941Z,6.55
2022-07-28T20:42:19.097Z,7.10
2022-07-28T20:44:46.817Z,7.45
2022-07-28T20:47:14.606Z,6.95
2022-07-28T20:49:49.562Z,6.53
2022-07-28T20:52:18.461Z,6.80
2022-07-28T20:54:48.382Z,6.65
2022-07-28T20:57:26.486Z,6.60
2022-07-28T20:59:54.297Z,6.80
2022-07-28T21:02:24.487Z,6.90
2022-07-28T21:04:59.474Z,6.65
2022-07-28T21:08:00.333Z,7.00
2022-07-28T21:10:23.471Z,6.72
2022-07-28T21:13:11.488Z,7.45
2022-07-28T21:15:45.494Z,7.40
2022-07-28T21:18:13.327Z,7.20
2022-07-28T21:20:41.910Z,6.50
2022-07-28T21:23:16.450Z,5.93
2022-07-28T21:25:45.617Z,7.10
2022-07-28T21:28:39.490Z,6.60
2022-07-28T21:31:07.845Z,6.75
2022-07-28T21:33:35.430Z,6.00
2022-07-28T21:36:09.457Z,6.57
2022-07-28T21:38:37.619Z,6.10
2022-07-28T21:41:05.403Z,6.55
2022-07-28T21:43:39.523Z,6.32
2022-07-28T21:46:07.219Z,6.20
2022-07-28T21:48:34.843Z,6.10
2022-07-28T21:51:14.758Z,6.47
2022-07-28T21:53:50.140Z,6.07
2022-07-28T21:56:24.473Z,6.90
2022-07-28T21:58:52.028Z,6.40
2022-07-28T22:01:19.521Z,6.20
2022-07-28T22:03:53.560Z,5.90
2022-07-28T22:06:22.615Z,5.65
2022-07-28T22:09:12.444Z,5.47
2022-07-28T22:11:46.583Z,5.18
2022-07-28T22:14:27.484Z,6.15
2022-07-28T22:16:55.076Z,5.53
2022-07-28T22:19:22.616Z,5.68
2022-07-28T22:21:56.470Z,6.20
2022-07-28T22:24:30.758Z,6.15
2022-07-28T22:27:05.614Z,7.05
2022-07-28T22:29:33.629Z,6.45
2022-07-28T22:32:01.182Z,5.93
2022-07-28T22:34:35.470Z,6.63
2022-07-28T22:37:11.143Z,6.32
2022-07-28T22:39:48.486Z,6.00
2022-07-28T22:42:16.377Z,6.40
2022-07-28T22:44:43.964Z,6.03
2022-07-28T22:47:17.502Z,5.80
2022-07-28T22:49:45.216Z,6.18
2022-07-28T22:52:12.685Z,6.53
2022-07-28T22:54:47.485Z,6.75
2022-07-28T22:57:14.945Z,6.40
2022-07-28T22:59:42.471Z,6.85
2022-07-28T23:02:24.504Z,6.60
2022-07-28T23:04:52.174Z,7.00
2022-07-28T23:07:19.762Z,5.93
2022-07-28T23:10:15.730Z,6.90
2022-07-28T23:12:49.626Z,6.32
2022-07-28T23:15:23.529Z,6.47
2022-07-28T23:17:51.362Z,6.90
2022-07-28T23:20:19.089Z,6.00
2022-07-28T23:22:54.637Z,6.28
2022-07-28T23:25:22.301Z,6.13
2022-07-28T23:27:49.731Z,6.00
2022-07-28T23:30:24.502Z,5.70
2022-07-28T23:32:53.136Z,5.97
2022-07-28T23:35:20.646Z,5.65
2022-07-28T23:37:54.519Z,6.07
2022-07-28T23:40:27.375Z,6.22
2022-07-28T23:43:02.490Z,5.72
2022-07-28T23:45:31.437Z,5.63
2022-07-28T23:47:59.338Z,5.60
2022-07-28T23:50:33.530Z,5.88
2022-07-28T23:53:00.987Z,5.72
2022-07-28T23:55:28.453Z,6.22
2022-07-28T23:58:04.550Z,6.00
